Time;durP1;ratioP1;P1;durP2;ratioP2;P2;SDS_P1;SDS_P2;PMS_P1;PMS_P2;Temp;Humidity;BMP_temperature;BMP_pressure;BME280_temperature;BME280_humidity;BME280_pressure;Samples;Min_cycle;Max_cycle;Signal;HPM_P1;HPM_P2
2022/03/09 00:00:15;;;;;;;6.22;3.63;;;2.10;83.30;;;;;;6100882;23;20028;-80
2022/03/09 00:02:41;;;;;;;5.25;3.80;;;2.10;83.50;;;;;;6125605;23;20036;-81
2022/03/09 00:05:07;;;;;;;5.75;3.60;;;2.00;83.90;;;;;;6101555;23;20021;-81
2022/03/09 00:07:33;;;;;;;10.32;4.30;;;2.00;84.50;;;;;;6150875;23;20028;-81
2022/03/09 00:09:59;;;;;;;7.10;4.53;;;2.30;85.40;;;;;;6101426;23;20020;-81
2022/03/09 00:12:25;;;;;;;6.07;4.13;;;1.90;85.30;;;;;;6125367;23;20096;-81
2022/03/09 00:14:51;;;;;;;4.90;3.78;;;1.80;85.80;;;;;;6125585;23;20076;-80
2022/03/09 00:17:16;;;;;;;6.32;4.00;;;1.80;86.20;;;;;;6101554;23;20361;-81
2022/03/09 00:19:42;;;;;;;4.95;3.80;;;1.90;86.00;;;;;;6077464;23;20014;-80
2022/03/09 00:22:08;;;;;;;6.28;4.18;;;1.90;86.00;;;;;;6101162;23;20021;-80
2022/03/09 00:24:34;;;;;;;6.63;4.57;;;1.90;86.20;;;;;;6125884;23;20141;-81
2022/03/09 00:27:00;;;;;;;6.45;4.00;;;2.50;86.50;;;;;;6125389;23;20022;-81
2022/03/09 00:29:26;;;;;;;6.65;3.88;;;2.60;87.00;;;;;;6101315;23;20017;-81
2022/03/09 00:31:52;;;;;;;8.43;4.40;;;1.70;85.80;;;;;;6100780;23;20352;-81
2022/03/09 00:34:18;;;;;;;7.32;4.22;;;1.60;85.80;;;;;;6101377;23;20060;-80
2022/03/09 00:36:44;;;;;;;9.95;4.63;;;1.40;86.60;;;;;;6150095;23;20021;-81
2022/03/09 00:39:10;;;;;;;7.00;4.50;;;1.40;86.60;;;;;;6125492;23;20461;-80
2022/03/09 00:41:36;;;;;;;8.57;4.72;;;1.20;87.20;;;;;;6125185;23;20028;-81
2022/03/09 00:44:03;;;;;;;6.97;4.22;;;1.10;87.40;;;;;;6125476;23;20028;-82
2022/03/09 00:46:28;;;;;;;7.18;4.43;;;0.90;88.30;;;;;;6101255;23;20522;-81
2022/03/09 00:48:54;;;;;;;6.85;4.72;;;0.80;88.70;;;;;;6101066;23;20018;-81
2022/03/09 00:51:20;;;;;;;7.43;4.32;;;0.80;88.90;;;;;;6125755;23;20420;-81
2022/03/09 00:53:45;;;;;;;6.78;4.60;;;0.70;88.90;;;;;;6100594;23;20025;-81
2022/03/09 00:56:11;;;;;;;8.60;4.63;;;0.70;90.00;;;;;;6101139;23;20405;-81
2022/03/09 00:58:37;;;;;;;7.47;4.25;;;0.60;90.10;;;;;;6125168;23;20063;-81
2022/03/09 01:01:02;;;;;;;8.13;4.57;;;0.60;90.00;;;;;;6125846;23;20025;-81
2022/03/09 01:03:28;;;;;;;7.75;4.32;;;0.60;90.00;;;;;;6124948;23;20353;-81
2022/03/09 01:05:55;;;;;;;12.10;5.40;;;0.50;90.10;;;;;;6100927;23;20021;-80
2022/03/09 01:08:20;;;;;;;7.55;4.47;;;0.50;90.30;;;;;;6149820;23;20017;-81
2022/03/09 01:10:46;;;;;;;7.65;4.60;;;0.50;90.80;;;;;;6125554;23;20056;-80
2022/03/09 01:13:12;;;;;;;7.47;4.88;;;0.40;90.90;;;;;;6125217;23;20352;-80
2022/03/09 01:15:38;;;;;;;8.02;4.90;;;0.40;91.00;;;;;;6125050;23;20017;-80
2022/03/09 01:18:04;;;;;;;8.02;4.55;;;0.40;91.60;;;;;;6100800;23;20056;-80
2022/03/09 01:20:29;;;;;;;9.75;4.82;;;0.40;91.50;;;;;;6101257;23;20022;-80
2022/03/09 01:22:55;;;;;;;8.90;5.22;;;0.30;91.50;;;;;;6149425;23;20014;-80
2022/03/09 01:25:21;;;;;;;8.48;5.45;;;0.30;91.80;;;;;;6100420;23;20022;-80
2022/03/09 01:27:47;;;;;;;8.75;5.35;;;0.30;91.70;;;;;;6124911;23;20022;-81
2022/03/09 01:30:13;;;;;;;9.32;5.22;;;1.00;91.70;;;;;;6100451;23;20018;-80
2022/03/09 01:32:39;;;;;;;9.65;5.00;;;0.30;92.10;;;;;;6100648;23;20014;-80
2022/03/09 01:35:05;;;;;;;8.88;5.15;;;0.20;92.20;;;;;;6076884;23;20017;-81
2022/03/09 01:37:31;;;;;;;8.10;4.93;;;0.20;92.40;;;;;;6100183;23;20022;-81
2022/03/09 01:39:57;;;;;;;13.15;5.75;;;0.20;92.50;;;;;;6100569;23;20065;-81
2022/03/09 01:42:23;;;;;;;8.18;5.32;;;0.40;92.70;;;;;;6124843;23;20084;-80
2022/03/09 01:44:48;;;;;;;9.10;5.38;;;0.10;93.00;;;;;;6100582;23;20017;-80
2022/03/09 01:47:14;;;;;;;7.68;5.22;;;0.10;93.10;;;;;;6100408;23;20018;-81
2022/03/09 01:49:40;;;;;;;8.45;5.72;;;0.10;93.30;;;;;;6124874;23;20101;-80
2022/03/09 01:52:07;;;;;;;8.07;5.30;;;0.10;93.90;;;;;;6100595;23;20104;-81
2022/03/09 01:54:32;;;;;;;10.48;5.50;;;0.10;93.80;;;;;;6100121;23;20552;-81
2022/03/09 01:56:59;;;;;;;9.13;5.47;;;0.00;94.10;;;;;;6100742;23;20022;-81
2022/03/09 01:59:26;;;;;;;8.73;5.60;;;0.00;94.30;;;;;;6100348;23;20017;-81
2022/03/09 02:01:52;;;;;;;9.88;5.78;;;0.00;94.90;;;;;;6100447;23;20100;-80
2022/03/09 02:04:18;;;;;;;10.45;5.75;;;0.00;94.80;;;;;;6124583;23;20085;-81
2022/03/09 02:06:45;;;;;;;12.00;5.70;;;0.00;94.70;;;;;;6149430;23;20409;-80
2022/03/09 02:11:57;;;;;;;8.75;5.40;;;0.00;95.40;;;;;;6149486;23;20651;-80
2022/03/09 02:14:41;;;;;;;9.68;5.55;;;0.00;95.30;;;;;;6124660;23;20029;-81
2022/03/09 02:17:13;;;;;;;8.70;5.45;;;0.00;95.00;;;;;;6100258;23;20096;-81
2022/03/09 02:19:41;;;;;;;8.90;5.20;;;0.70;95.20;;;;;;6124601;23;20022;-80
2022/03/09 02:22:15;;;;;;;9.85;5.50;;;0.40;95.50;;;;;;6149141;23;20021;-80
2022/03/09 02:24:41;;;;;;;8.68;5.45;;;-0.10;95.30;;;;;;6148740;23;20025;-80
2022/03/09 02:27:07;;;;;;;9.60;5.63;;;-0.10;95.80;;;;;;6100808;23;20377;-81
2022/03/09 02:29:32;;;;;;;9.05;5.70;;;-0.20;95.50;;;;;;6148524;23;20018;-80
2022/03/09 02:32:00;;;;;;;11.68;5.55;;;-0.20;95.80;;;;;;6100298;23;20024;-80
2022/03/09 02:34:26;;;;;;;10.20;5.78;;;-0.30;95.90;;;;;;6099706;23;20738;-80
2022/03/09 02:36:52;;;;;;;9.63;5.60;;;-0.40;96.30;;;;;;6076400;23;20432;-80
2022/03/09 02:39:17;;;;;;;12.38;5.47;;;-0.40;96.30;;;;;;6100521;23;20018;-80
2022/03/09 02:41:43;;;;;;;8.63;5.75;;;-0.30;96.90;;;;;;6124900;23;20346;-80
2022/03/09 02:44:09;;;;;;;8.18;5.20;;;-0.30;96.50;;;;;;6124398;23;20018;-80
2022/03/09 02:46:34;;;;;;;7.85;5.28;;;0.30;96.40;;;;;;6124640;23;20092;-80
2022/03/09 02:49:00;;;;;;;10.32;5.90;;;-0.30;96.20;;;;;;6100106;23;20097;-81
2022/03/09 02:51:26;;;;;;;13.40;5.93;;;-0.30;96.70;;;;;;6076844;23;20017;-80
2022/03/09 02:53:52;;;;;;;9.60;5.80;;;-0.30;97.00;;;;;;6102135;23;20017;-81
2022/03/09 02:56:17;;;;;;;8.88;6.00;;;-0.30;97.60;;;;;;6102571;23;20076;-80
2022/03/09 02:58:44;;;;;;;8.02;5.03;;;-0.30;97.10;;;;;;6101756;23;20025;-80
2022/03/09 03:01:12;;;;;;;9.60;5.88;;;-0.30;98.50;;;;;;6150901;23;20017;-80
2022/03/09 03:03:39;;;;;;;9.13;5.63;;;-0.30;98.10;;;;;;6102001;23;20025;-80
2022/03/09 03:06:05;;;;;;;7.53;5.25;;;0.40;98.60;;;;;;6126421;23;20085;-80
2022/03/09 03:08:30;;;;;;;9.88;5.32;;;0.30;98.30;;;;;;6101430;23;20017;-80
2022/03/09 03:10:56;;;;;;;9.98;5.90;;;-0.20;98.80;;;;;;6101943;23;20022;-80
2022/03/09 03:13:22;;;;;;;10.30;5.65;;;0.20;99.10;;;;;;6077651;23;20025;-81
2022/03/09 03:15:48;;;;;;;9.30;5.90;;;-0.10;99.00;;;;;;6125954;23;20018;-80
2022/03/09 03:18:13;;;;;;;10.98;5.93;;;-0.10;98.80;;;;;;6126296;23;20535;-81
2022/03/09 03:20:39;;;;;;;12.65;5.50;;;-0.10;99.10;;;;;;6126440;23;20018;-80
2022/03/09 03:23:04;;;;;;;10.07;6.13;;;-0.20;98.70;;;;;;6101822;23;20020;-81
2022/03/09 03:25:30;;;;;;;9.93;5.82;;;-0.30;98.60;;;;;;6077831;23;20058;-80
2022/03/09 03:27:56;;;;;;;9.82;5.80;;;-0.30;99.20;;;;;;6101768;23;20024;-81
2022/03/09 03:30:21;;;;;;;10.57;5.85;;;-0.30;99.40;;;;;;6101612;23;20056;-80
2022/03/09 03:32:47;;;;;;;9.18;5.75;;;-0.40;99.20;;;;;;6126400;23;20013;-80
2022/03/09 03:35:13;;;;;;;10.10;5.57;;;0.50;99.90;;;;;;6101931;23;20029;-81
2022/03/09 03:37:40;;;;;;;8.95;6.00;;;-0.50;99.40;;;;;;6077856;23;20023;-81
2022/03/09 03:40:07;;;;;;;10.23;5.70;;;-0.50;99.70;;;;;;6101497;23;20021;-80
2022/03/09 03:42:32;;;;;;;10.63;6.00;;;-0.60;99.60;;;;;;6150411;23;20021;-80
2022/03/09 03:44:58;;;;;;;13.50;6.35;;;-0.60;99.80;;;;;;6101642;23;20457;-80
2022/03/09 03:47:24;;;;;;;10.95;6.45;;;-0.60;99.70;;;;;;6126164;23;20021;-80
2022/03/09 03:49:49;;;;;;;12.98;5.95;;;-0.70;99.60;;;;;;6101980;23;20501;-80
2022/03/09 03:52:15;;;;;;;10.43;6.68;;;-0.70;99.90;;;;;;6101688;23;20393;-80
2022/03/09 03:54:41;;;;;;;12.50;6.75;;;-0.70;99.90;;;;;;6150487;23;20092;-80
2022/03/09 03:57:07;;;;;;;13.82;7.38;;;-0.70;99.90;;;;;;6101387;23;20022;-80
2022/03/09 03:59:33;;;;;;;9.32;5.60;;;-0.70;99.90;;;;;;6102108;23;20068;-80
2022/03/09 04:01:59;;;;;;;9.23;6.00;;;-0.30;99.90;;;;;;6125530;23;20064;-80
2022/03/09 04:04:25;;;;;;;11.57;6.40;;;-0.80;99.90;;;;;;6150153;23;20022;-80
2022/03/09 04:06:51;;;;;;;9.20;5.18;;;-0.80;99.90;;;;;;6125579;23;20392;-80
2022/03/09 04:09:16;;;;;;;10.98;6.00;;;-0.80;99.90;;;;;;6101994;23;20013;-80
2022/03/09 04:11:42;;;;;;;9.88;6.28;;;-0.80;99.90;;;;;;6101395;23;20017;-81
2022/03/09 04:14:08;;;;;;;9.88;5.82;;;-0.80;99.90;;;;;;6150449;23;20096;-81
2022/03/09 04:16:34;;;;;;;10.30;5.85;;;-0.90;99.90;;;;;;6125868;23;20081;-80
2022/03/09 04:18:59;;;;;;;9.25;5.88;;;-0.90;99.90;;;;;;6101694;23;20108;-81
2022/03/09 04:21:25;;;;;;;12.40;6.10;;;-1.00;99.90;;;;;;6101421;23;20481;-80
2022/03/09 04:23:51;;;;;;;10.55;5.90;;;-1.00;99.90;;;;;;6101591;23;20028;-81
2022/03/09 04:26:16;;;;;;;14.45;6.72;;;-1.00;99.90;;;;;;6100976;23;20024;-80
2022/03/09 04:28:42;;;;;;;11.93;5.65;;;-1.10;99.90;;;;;;6150379;23;20049;-81
2022/03/09 04:31:08;;;;;;;10.63;6.25;;;-1.10;99.90;;;;;;6101191;23;20014;-81
2022/03/09 04:33:34;;;;;;;10.80;6.43;;;-1.10;99.90;;;;;;6150474;23;20096;-81
2022/03/09 04:35:59;;;;;;;9.48;5.90;;;-1.10;99.90;;;;;;6100948;23;20018;-81
2022/03/09 04:38:25;;;;;;;11.68;7.55;;;-1.10;99.90;;;;;;6101234;23;20028;-81
2022/03/09 04:40:51;;;;;;;10.35;6.40;;;-1.10;99.90;;;;;;6101145;23;20016;-81
2022/03/09 04:43:16;;;;;;;10.27;6.38;;;-1.20;99.90;;;;;;6101504;23;20160;-80
2022/03/09 04:45:42;;;;;;;13.20;6.95;;;-1.20;99.90;;;;;;6149986;23;20157;-81
2022/03/09 04:48:08;;;;;;;13.75;6.93;;;-1.30;99.90;;;;;;6101272;23;20025;-80
2022/03/09 04:50:33;;;;;;;10.23;5.82;;;-1.30;99.90;;;;;;6101196;23;20409;-80
2022/03/09 04:52:59;;;;;;;13.55;6.93;;;-1.30;99.90;;;;;;6101208;23;20219;-81
2022/03/09 04:55:25;;;;;;;11.60;6.50;;;-1.20;99.90;;;;;;6101107;23;20029;-80
2022/03/09 04:57:51;;;;;;;11.20;6.38;;;-1.10;99.90;;;;;;6101025;23;20017;-80
2022/03/09 05:00:17;;;;;;;10.93;7.07;;;-1.00;99.90;;;;;;6149993;23;20025;-81
2022/03/09 05:02:43;;;;;;;12.35;7.20;;;-0.90;99.90;;;;;;6100697;23;20022;-81
2022/03/09 05:05:09;;;;;;;11.82;6.57;;;-0.30;99.90;;;;;;6096134;23;20017;-80
2022/03/09 05:07:39;;;;;;;12.07;6.78;;;-0.90;99.90;;;;;;6122618;23;20017;-80
2022/03/09 05:10:05;;;;;;;12.45;7.10;;;-0.60;99.90;;;;;;6096904;23;20457;-80
2022/03/09 05:12:31;;;;;;;10.93;6.38;;;-0.90;99.90;;;;;;6124701;23;20017;-81
2022/03/09 05:14:57;;;;;;;11.30;6.38;;;-1.00;99.90;;;;;;6101100;23;20361;-80
2022/03/09 05:17:23;;;;;;;12.77;7.20;;;-0.90;99.90;;;;;;6124969;23;20101;-81
2022/03/09 05:19:48;;;;;;;12.85;7.15;;;-1.00;99.90;;;;;;6101079;23;20017;-81
2022/03/09 05:22:14;;;;;;;16.10;6.63;;;-0.90;99.90;;;;;;6100406;23;20120;-80
2022/03/09 05:24:40;;;;;;;14.60;7.00;;;-1.00;99.90;;;;;;6076533;23;20017;-80
2022/03/09 05:27:06;;;;;;;12.73;7.25;;;-1.00;99.90;;;;;;6149541;23;20021;-81
2022/03/09 05:29:31;;;;;;;12.50;7.13;;;-0.80;99.90;;;;;;6125502;23;20025;-80
2022/03/09 05:31:57;;;;;;;9.80;6.53;;;-1.10;99.90;;;;;;6100224;23;20057;-81
2022/03/09 05:34:23;;;;;;;12.38;7.10;;;-0.90;99.90;;;;;;6100732;23;20033;-81
2022/03/09 05:36:48;;;;;;;12.18;6.95;;;-1.10;99.90;;;;;;6149257;23;20081;-81
2022/03/09 05:39:14;;;;;;;12.35;6.75;;;-1.10;99.90;;;;;;6150063;23;20088;-81
2022/03/09 05:41:40;;;;;;;14.13;6.63;;;-1.10;99.90;;;;;;6145797;23;20021;-81
2022/03/09 05:44:06;;;;;;;13.35;6.88;;;-1.10;99.90;;;;;;6071688;23;20018;-80
2022/03/09 05:46:33;;;;;;;11.65;6.32;;;-1.20;99.90;;;;;;6047977;23;20113;-82
2022/03/09 05:48:58;;;;;;;12.02;7.28;;;-1.20;99.90;;;;;;6071918;23;20458;-81
2022/03/09 05:51:24;;;;;;;12.23;6.30;;;-1.30;99.90;;;;;;6071814;23;20020;-81
2022/03/09 05:53:50;;;;;;;10.48;6.38;;;-1.30;99.90;;;;;;6095066;23;20022;-80
2022/03/09 05:56:15;;;;;;;13.27;6.43;;;-1.30;99.90;;;;;;6071373;23;20361;-81
2022/03/09 05:58:41;;;;;;;11.95;6.78;;;-1.40;99.90;;;;;;6095383;23;20028;-80
2022/03/09 06:01:07;;;;;;;14.38;7.32;;;-1.40;99.90;;;;;;6119659;23;20017;-81
2022/03/09 06:03:33;;;;;;;11.80;6.68;;;-1.40;99.90;;;;;;6071078;23;20427;-80
2022/03/09 06:05:59;;;;;;;12.45;6.95;;;-1.30;99.90;;;;;;6119716;23;20022;-81
2022/03/09 06:08:24;;;;;;;13.73;6.95;;;-1.30;99.90;;;;;;6071269;23;20050;-80
2022/03/09 06:10:52;;;;;;;11.27;6.72;;;-1.20;99.90;;;;;;6071384;23;20361;-80
2022/03/09 06:13:18;;;;;;;12.43;6.05;;;-1.10;99.90;;;;;;6070667;23;20398;-81
2022/03/09 06:15:44;;;;;;;12.93;7.50;;;-1.10;99.90;;;;;;6071291;23;20025;-80
2022/03/09 06:18:10;;;;;;;13.82;7.30;;;-1.00;99.90;;;;;;6071164;23;20021;-80
2022/03/09 06:20:36;;;;;;;11.50;7.97;;;-0.90;99.90;;;;;;6047612;23;20469;-81
2022/03/09 06:23:02;;;;;;;10.82;6.72;;;-0.90;99.90;;;;;;6070628;23;20014;-80
2022/03/09 06:25:28;;;;;;;13.02;6.82;;;-0.70;99.90;;;;;;6119335;23;20025;-80
2022/03/09 06:27:54;;;;;;;14.18;7.10;;;-0.70;99.90;;;;;;6071138;23;20484;-80
2022/03/09 06:30:20;;;;;;;13.18;7.28;;;-0.70;99.90;;;;;;6119252;23;20025;-80
2022/03/09 06:32:47;;;;;;;13.75;7.47;;;-0.60;99.90;;;;;;6119734;23;20014;-81
2022/03/09 06:35:14;;;;;;;15.98;7.38;;;-0.60;99.90;;;;;;6071132;23;20040;-80
2022/03/09 06:37:40;;;;;;;10.88;6.55;;;-0.60;99.90;;;;;;6095106;23;20022;-80
2022/03/09 06:40:07;;;;;;;11.80;6.78;;;-0.60;99.90;;;;;;6071330;23;20054;-80
2022/03/09 06:42:32;;;;;;;13.52;6.45;;;-0.60;99.90;;;;;;6133605;23;20021;-80
2022/03/09 06:44:58;;;;;;;18.33;7.65;;;-0.60;99.90;;;;;;6100350;23;20100;-81
2022/03/09 06:47:25;;;;;;;13.10;7.53;;;-0.60;99.90;;;;;;6124159;23;20476;-81
2022/03/09 06:49:51;;;;;;;15.27;6.93;;;-0.50;99.90;;;;;;6100325;23;20021;-80
2022/03/09 06:52:16;;;;;;;12.30;6.65;;;-0.60;99.90;;;;;;6149432;23;20024;-80
2022/03/09 06:54:42;;;;;;;13.20;7.22;;;-0.10;99.90;;;;;;6149042;23;20334;-80
2022/03/09 06:57:08;;;;;;;13.57;7.10;;;-0.70;99.90;;;;;;6100261;23;20029;-80
2022/03/09 06:59:34;;;;;;;14.55;7.65;;;-0.20;99.90;;;;;;6099852;23;20024;-82
2022/03/09 07:02:00;;;;;;;13.73;7.40;;;-0.60;99.90;;;;;;6100496;23;20060;-82
2022/03/09 07:04:25;;;;;;;12.30;7.13;;;-0.60;99.90;;;;;;6099924;23;20018;-81
2022/03/09 07:06:51;;;;;;;11.68;6.88;;;-0.60;99.90;;;;;;6124777;23;20009;-81
2022/03/09 07:09:17;;;;;;;15.10;7.38;;;-0.60;99.90;;;;;;6099936;23;20097;-81
2022/03/09 07:11:44;;;;;;;12.75;7.07;;;-0.60;99.90;;;;;;6100775;23;20018;-81
2022/03/09 07:14:10;;;;;;;12.85;7.25;;;-0.60;99.90;;;;;;6099920;23;20023;-81
2022/03/09 07:16:37;;;;;;;17.95;7.65;;;-0.50;99.90;;;;;;6100946;23;20428;-81
2022/03/09 07:19:03;;;;;;;10.32;6.68;;;-0.40;99.90;;;;;;6100442;23;20100;-81
2022/03/09 07:21:29;;;;;;;13.75;7.20;;;-0.30;99.90;;;;;;6100342;23;20064;-81
2022/03/09 07:23:55;;;;;;;13.10;7.70;;;-0.20;99.90;;;;;;6100181;23;20018;-81
2022/03/09 07:26:20;;;;;;;12.75;7.43;;;0.40;99.90;;;;;;6100099;23;20361;-81
2022/03/09 07:28:46;;;;;;;15.93;7.18;;;0.00;99.90;;;;;;6149125;23;20021;-81
2022/03/09 07:31:12;;;;;;;12.30;6.88;;;0.20;99.90;;;;;;6075624;23;20018;-81
2022/03/09 07:33:38;;;;;;;10.13;6.75;;;0.40;99.90;;;;;;6148879;23;20021;-82
2022/03/09 07:36:04;;;;;;;10.80;6.38;;;0.70;99.90;;;;;;6101175;23;20101;-81
2022/03/09 07:38:30;;;;;;;12.80;7.20;;;0.80;99.90;;;;;;6100909;23;20053;-81
2022/03/09 07:40:56;;;;;;;13.50;7.28;;;1.10;99.90;;;;;;6150879;23;20041;-81
2022/03/09 07:43:22;;;;;;;11.05;6.53;;;1.70;99.90;;;;;;6102492;23;20457;-82
2022/03/09 07:45:48;;;;;;;12.70;6.43;;;1.10;99.90;;;;;;6151466;23;20028;-82
2022/03/09 07:48:14;;;;;;;10.13;6.40;;;1.60;99.90;;;;;;6151443;23;20010;-82
2022/03/09 07:50:40;;;;;;;12.40;6.72;;;3.00;99.90;;;;;;6102339;23;20017;-79
2022/03/09 07:53:06;;;;;;;14.98;6.93;;;3.10;99.70;;;;;;6126660;23;20093;-79
2022/03/09 07:55:33;;;;;;;10.63;6.50;;;4.00;98.70;;;;;;6102370;23;20025;-80
2022/03/09 07:57:58;;;;;;;10.95;6.68;;;3.70;98.50;;;;;;6102690;23;20022;-80
2022/03/09 08:00:24;;;;;;;12.52;7.03;;;4.20;97.10;;;;;;6150719;23;20021;-79
2022/03/09 08:02:50;;;;;;;13.50;6.57;;;4.40;97.70;;;;;;6102422;23;20100;-80
2022/03/09 08:05:16;;;;;;;10.48;6.70;;;4.90;95.70;;;;;;6102535;23;20010;-82
2022/03/09 08:07:43;;;;;;;10.35;6.88;;;4.70;95.90;;;;;;6126634;23;20028;-80
2022/03/09 08:10:09;;;;;;;9.60;5.93;;;4.60;94.50;;;;;;6102370;23;20049;-80
2022/03/09 08:12:36;;;;;;;13.02;7.03;;;4.60;95.20;;;;;;6102524;23;20045;-80
2022/03/09 08:15:02;;;;;;;10.50;6.20;;;4.80;94.30;;;;;;6150948;23;20084;-79
2022/03/09 08:17:28;;;;;;;13.13;7.00;;;4.60;94.20;;;;;;6126768;23;20053;-80
2022/03/09 08:19:54;;;;;;;11.45;6.35;;;4.90;94.40;;;;;;6102581;23;20021;-80
2022/03/09 08:22:21;;;;;;;16.80;6.80;;;5.20;93.20;;;;;;6102559;23;20031;-80
2022/03/09 08:24:47;;;;;;;10.57;6.25;;;5.30;92.00;;;;;;6127093;23;20014;-80
2022/03/09 08:27:13;;;;;;;12.25;6.05;;;5.20;92.20;;;;;;6151356;23;20081;-80
2022/03/09 08:29:39;;;;;;;9.98;6.45;;;5.20;92.00;;;;;;6126378;23;20021;-80
2022/03/09 08:32:05;;;;;;;11.48;6.30;;;5.30;91.80;;;;;;6123624;23;20022;-80
2022/03/09 08:34:31;;;;;;;9.73;6.25;;;5.50;91.80;;;;;;6101985;23;20330;-80
2022/03/09 08:36:56;;;;;;;9.52;5.82;;;5.70;90.90;;;;;;6101725;23;20029;-80
2022/03/09 08:39:22;;;;;;;10.02;6.00;;;6.00;90.00;;;;;;6126066;23;20104;-80
2022/03/09 08:41:48;;;;;;;11.68;6.85;;;5.90;89.60;;;;;;6126102;23;20574;-80
2022/03/09 08:44:13;;;;;;;12.30;6.30;;;6.10;89.80;;;;;;6126155;23;20330;-81
2022/03/09 08:46:39;;;;;;;11.23;6.72;;;6.30;89.40;;;;;;6101626;23;20089;-80
2022/03/09 08:49:05;;;;;;;10.73;6.35;;;6.50;88.00;;;;;;6101772;23;20134;-80
2022/03/09 08:51:30;;;;;;;10.70;6.90;;;6.90;88.60;;;;;;6077365;23;20584;-81
2022/03/09 08:53:56;;;;;;;8.93;6.22;;;7.40;86.00;;;;;;6150765;23;20031;-81
2022/03/09 08:56:22;;;;;;;9.80;6.53;;;7.90;86.20;;;;;;6102337;23;20365;-81
2022/03/09 08:58:47;;;;;;;10.02;6.18;;;8.30;82.40;;;;;;6151273;23;20112;-81
2022/03/09 09:01:13;;;;;;;7.78;6.15;;;8.80;81.10;;;;;;6126160;23;20018;-79
2022/03/09 09:03:39;;;;;;;10.20;5.70;;;9.40;79.00;;;;;;6101900;23;20018;-79
2022/03/09 09:06:05;;;;;;;7.85;5.75;;;9.40;76.60;;;;;;6150717;23;20018;-79
2022/03/09 09:08:31;;;;;;;12.00;5.93;;;9.50;73.20;;;;;;6126378;23;20017;-79
2022/03/09 09:10:57;;;;;;;8.65;6.25;;;10.00;72.60;;;;;;6102013;23;20049;-79
2022/03/09 09:13:22;;;;;;;10.25;6.43;;;10.50;74.00;;;;;;6126444;23;20020;-79
2022/03/09 09:15:49;;;;;;;8.25;6.20;;;11.00;70.80;;;;;;6101968;23;20025;-79
2022/03/09 09:18:15;;;;;;;12.57;7.10;;;11.20;68.60;;;;;;6125996;23;20017;-79
2022/03/09 09:20:41;;;;;;;9.32;6.28;;;10.80;67.90;;;;;;6101379;23;20025;-80
2022/03/09 09:23:07;;;;;;;10.68;6.85;;;11.40;68.80;;;;;;6150590;23;20517;-80
2022/03/09 09:25:33;;;;;;;12.80;6.75;;;11.30;64.40;;;;;;6150276;23;20068;-80
2022/03/09 09:27:59;;;;;;;9.35;6.55;;;11.70;67.10;;;;;;6125860;23;20018;-79
2022/03/09 09:30:26;;;;;;;7.55;5.85;;;12.20;66.00;;;;;;6150341;23;20028;-80
2022/03/09 09:32:53;;;;;;;10.23;6.35;;;12.70;62.00;;;;;;6126404;23;20104;-80
2022/03/09 09:35:19;;;;;;;9.43;6.47;;;12.60;61.30;;;;;;6102225;23;20017;-80
2022/03/09 09:37:45;;;;;;;8.70;6.18;;;12.70;60.70;;;;;;6125887;23;20028;-80
2022/03/09 09:40:13;;;;;;;9.48;6.15;;;13.00;61.00;;;;;;6150787;23;20022;-80
2022/03/09 09:42:39;;;;;;;9.15;6.38;;;13.10;59.90;;;;;;6125960;23;20330;-80
2022/03/09 09:45:07;;;;;;;9.55;6.03;;;13.10;59.10;;;;;;6127123;23;20017;-79
2022/03/09 09:47:33;;;;;;;10.18;6.90;;;11.70;57.90;;;;;;6104374;23;20045;-80
2022/03/09 09:50:01;;;;;;;10.40;6.30;;;11.50;59.90;;;;;;6101657;23;20555;-79
2022/03/09 09:52:29;;;;;;;9.52;6.70;;;11.70;59.40;;;;;;6125980;23;20024;-79
2022/03/09 09:54:56;;;;;;;10.60;6.65;;;11.40;59.10;;;;;;6101820;23;20017;-80
2022/03/09 09:57:23;;;;;;;9.68;6.70;;;11.50;60.40;;;;;;6100976;23;20057;-81
2022/03/09 09:59:52;;;;;;;10.45;6.70;;;12.40;60.40;;;;;;6101329;23;20017;-81
2022/03/09 10:02:17;;;;;;;8.50;6.55;;;12.90;58.90;;;;;;6100530;23;20461;-80
2022/03/09 10:04:44;;;;;;;8.80;6.47;;;13.00;57.70;;;;;;6150687;23;20017;-81
2022/03/09 10:07:10;;;;;;;10.38;6.82;;;13.40;57.20;;;;;;6150511;23;20025;-81
2022/03/09 10:09:41;;;;;;;8.20;6.30;;;12.80;57.00;;;;;;6101341;23;20125;-81
2022/03/09 10:12:08;;;;;;;9.52;6.43;;;12.10;57.90;;;;;;6101208;23;20036;-81
2022/03/09 10:14:48;;;;;;;9.00;6.97;;;12.20;58.90;;;;;;6150406;23;20574;-80
2022/03/09 10:17:16;;;;;;;9.75;6.32;;;12.50;58.80;;;;;;6125967;23;20022;-81
2022/03/09 10:19:44;;;;;;;12.18;7.30;;;13.00;57.80;;;;;;6126019;23;20452;-81
2022/03/09 10:22:27;;;;;;;9.52;6.55;;;12.90;56.30;;;;;;6125845;23;20536;-81
2022/03/09 10:24:55;;;;;;;8.98;6.47;;;13.70;57.00;;;;;;6101463;23;20017;-81
2022/03/09 10:27:43;;;;;;;8.85;6.55;;;14.00;55.70;;;;;;6101428;23;20449;-80
2022/03/09 10:30:12;;;;;;;8.45;5.68;;;14.30;54.50;;;;;;6125419;23;20017;-81
2022/03/09 10:32:59;;;;;;;8.43;6.70;;;14.70;55.50;;;;;;6123182;23;20515;-80
2022/03/09 10:35:31;;;;;;;8.75;5.88;;;13.80;53.50;;;;;;6099679;23;20024;-80
2022/03/09 10:38:01;;;;;;;9.05;6.65;;;13.50;53.40;;;;;;6101665;23;20017;-81
2022/03/09 10:40:29;;;;;;;9.95;6.57;;;14.00;55.00;;;;;;6101225;23;20211;-81
2022/03/09 10:43:13;;;;;;;10.60;6.85;;;13.50;54.50;;;;;;6100412;23;20088;-81
2022/03/09 10:46:03;;;;;;;11.05;6.78;;;14.40;54.80;;;;;;6101258;23;20357;-81
2022/03/09 10:48:52;;;;;;;10.88;6.70;;;15.20;53.30;;;;;;6101243;23;20515;-81
2022/03/09 10:51:33;;;;;;;8.55;6.35;;;14.70;51.90;;;;;;6150191;23;20018;-81
2022/03/09 10:54:04;;;;;;;10.88;7.05;;;14.40;51.50;;;;;;6101112;23;20053;-80
2022/03/09 10:56:31;;;;;;;8.52;6.07;;;14.50;52.60;;;;;;6150426;23;20018;-81
2022/03/09 10:59:06;;;;;;;11.23;7.20;;;14.70;52.30;;;;;;6101380;23;20014;-81
2022/03/09 11:01:32;;;;;;;9.05;7.10;;;14.60;51.60;;;;;;6101248;23;20028;-81
2022/03/09 11:04:13;;;;;;;8.77;6.60;;;14.60;52.40;;;;;;6101091;23;20018;-81
2022/03/09 11:06:46;;;;;;;11.10;6.50;;;14.70;51.50;;;;;;6101398;23;20641;-81
2022/03/09 11:09:17;;;;;;;11.15;6.93;;;14.00;51.30;;;;;;6100946;23;20057;-81
2022/03/09 11:11:45;;;;;;;11.73;7.65;;;14.00;52.60;;;;;;6101574;23;20052;-81
2022/03/09 11:14:13;;;;;;;9.98;7.25;;;13.80;52.20;;;;;;6102648;23;20043;-81
2022/03/09 11:16:40;;;;;;;10.63;6.85;;;14.30;52.60;;;;;;6127424;23;20029;-81
2022/03/09 11:19:06;;;;;;;10.43;6.95;;;14.20;52.00;;;;;;6103135;23;20101;-80
2022/03/09 11:21:34;;;;;;;10.63;7.43;;;14.50;52.20;;;;;;6127205;23;20025;-81
2022/03/09 11:23:59;;;;;;;9.23;6.90;;;14.50;51.10;;;;;;6127361;23;20018;-81
2022/03/09 11:26:30;;;;;;;9.13;6.88;;;14.70;51.00;;;;;;6151953;23;20020;-81
2022/03/09 11:29:05;;;;;;;10.80;7.60;;;14.10;50.40;;;;;;6102853;23;20021;-81
2022/03/09 11:31:48;;;;;;;9.02;6.93;;;13.60;51.30;;;;;;6102749;23;20021;-80
2022/03/09 11:34:32;;;;;;;10.38;6.82;;;14.20;52.30;;;;;;6127426;23;20017;-81
2022/03/09 11:37:04;;;;;;;11.02;6.88;;;14.80;52.10;;;;;;6152065;23;20076;-81
2022/03/09 11:39:29;;;;;;;10.25;6.88;;;14.60;51.30;;;;;;6103257;23;20013;-80
2022/03/09 11:42:20;;;;;;;10.40;7.38;;;14.30;51.50;;;;;;6127095;23;20423;-81
2022/03/09 11:44:50;;;;;;;8.18;6.47;;;13.90;50.80;;;;;;6097994;23;20073;-81
2022/03/09 11:47:16;;;;;;;12.02;6.72;;;13.90;52.60;;;;;;6102282;23;20479;-81
2022/03/09 11:49:42;;;;;;;10.20;7.78;;;13.40;51.20;;;;;;6102959;23;20467;-80
2022/03/09 11:52:12;;;;;;;10.63;7.00;;;13.20;51.50;;;;;;6142435;23;20017;-80
2022/03/09 11:54:45;;;;;;;10.20;6.78;;;13.30;51.80;;;;;;6118078;23;20025;-81
2022/03/09 11:57:15;;;;;;;10.48;6.63;;;12.90;51.80;;;;;;6144101;23;20025;-82
2022/03/09 12:00:08;;;;;;;8.77;7.03;;;12.90;51.00;;;;;;6094697;23;20028;-81
2022/03/09 12:02:39;;;;;;;12.52;7.00;;;13.00;50.00;;;;;;6095294;23;20021;-82
2022/03/09 12:05:06;;;;;;;10.38;6.38;;;13.00;52.60;;;;;;6119438;23;20021;-80
2022/03/09 12:07:33;;;;;;;11.55;7.28;;;13.00;51.90;;;;;;6094447;23;20130;-80
2022/03/09 12:10:02;;;;;;;10.05;6.70;;;13.20;52.30;;;;;;6095141;23;20029;-82
2022/03/09 12:12:30;;;;;;;8.15;6.47;;;13.30;51.10;;;;;;6094510;23;20462;-84
2022/03/09 12:15:09;;;;;;;12.30;6.90;;;13.20;51.00;;;;;;6119502;23;20021;-81
2022/03/09 12:17:42;;;;;;;10.35;6.80;;;13.30;51.20;;;;;;6096313;23;20468;-80
2022/03/09 12:20:29;;;;;;;9.05;7.05;;;13.30;50.60;;;;;;6101047;23;20068;-79
2022/03/09 12:23:01;;;;;;;9.88;6.65;;;13.40;49.30;;;;;;6101809;23;20022;-80
2022/03/09 12:25:46;;;;;;;13.73;6.93;;;13.30;49.10;;;;;;6101046;23;20109;-79
2022/03/09 12:31:00;;;;;;;14.27;6.93;;;13.70;47.60;;;;;;6125915;23;20457;-80
2022/03/09 12:33:30;;;;;;;8.75;6.30;;;13.50;48.30;;;;;;6091016;23;20445;-84
2022/03/09 12:36:20;;;;;;;17.48;7.25;;;13.60;47.50;;;;;;6143628;23;20021;-81
2022/03/09 12:38:49;;;;;;;15.77;7.25;;;13.50;47.20;;;;;;6143540;23;20017;-81
2022/03/09 12:41:25;;;;;;;12.52;7.07;;;13.70;48.30;;;;;;6094092;23;20013;-80
2022/03/09 12:43:53;;;;;;;10.45;6.57;;;13.70;47.80;;;;;;6143652;23;20371;-82
2022/03/09 12:46:20;;;;;;;7.60;6.05;;;13.80;48.50;;;;;;6095220;23;20014;-81
2022/03/09 12:48:45;;;;;;;11.85;6.20;;;13.60;47.70;;;;;;6094904;23;20020;-80
2022/03/09 12:51:11;;;;;;;14.15;6.55;;;13.70;48.10;;;;;;6070978;23;20092;-80